createdAt,value
2022-08-05T00:02:22.813Z,3.60
2022-08-05T00:04:55.071Z,2.90
2022-08-05T00:07:27.030Z,3.10
2022-08-05T00:10:12.001Z,5.40
2022-08-05T00:16:14.726Z,6.78
2022-08-05T00:21:14.430Z,3.03
2022-08-05T00:23:53.606Z,6.55
2022-08-05T00:26:31.923Z,3.10
2022-08-05T00:28:59.431Z,4.32
2022-08-05T00:32:13.245Z,5.72
2022-08-05T00:35:05.287Z,3.47
2022-08-05T00:37:35.856Z,3.80
2022-08-05T00:40:29.538Z,4.88
2022-08-05T00:43:02.220Z,3.22
2022-08-05T00:45:43.096Z,3.67
2022-08-05T00:48:13.558Z,3.58
2022-08-05T00:50:44.115Z,4.47
2022-08-05T00:54:00.970Z,2.65
2022-08-05T00:56:00.386Z,6.70
2022-08-05T00:58:27.877Z,4.10
2022-08-05T01:00:56.128Z,6.38
2022-08-05T01:03:24.696Z,4.93
2022-08-05T01:06:01.189Z,3.42
2022-08-05T01:08:43.366Z,4.63
2022-08-05T01:11:22.151Z,4.65
2022-08-05T01:14:10.892Z,4.88
2022-08-05T01:16:52.341Z,4.38
2022-08-05T01:19:36.565Z,3.58
2022-08-05T01:22:42.876Z,3.25
2022-08-05T01:25:40.776Z,3.50
2022-08-05T01:28:26.992Z,3.80
2022-08-05T01:31:04.859Z,4.45
2022-08-05T01:33:39.130Z,3.08
2022-08-05T01:36:16.256Z,3.00
2022-08-05T01:38:49.629Z,5.20
2022-08-05T01:41:20.985Z,3.80
2022-08-05T01:43:51.281Z,4.07
2022-08-05T01:46:41.393Z,4.85
2022-08-05T01:49:24.383Z,4.43
2022-08-05T01:51:59.430Z,4.22
2022-08-05T01:54:46.277Z,4.22
2022-08-05T01:58:11.439Z,7.10
2022-08-05T02:00:11.861Z,4.00
2022-08-05T02:02:55.039Z,4.10
2022-08-05T02:05:29.005Z,6.80
2022-08-05T02:10:35.299Z,5.00
2022-08-05T02:13:16.004Z,3.58
2022-08-05T02:16:06.275Z,3.88
2022-08-05T02:18:42.888Z,5.03
2022-08-05T02:21:15.072Z,4.90
2022-08-05T02:23:46.798Z,4.05
2022-08-05T02:26:26.428Z,5.00
2022-08-05T02:28:56.179Z,5.00
2022-08-05T02:31:34.969Z,2.88
2022-08-05T02:34:10.096Z,3.75
2022-08-05T02:36:43.590Z,2.42
2022-08-05T02:39:13.194Z,4.18
2022-08-05T02:41:57.496Z,3.28
2022-08-05T02:44:32.249Z,2.67
2022-08-05T02:47:01.284Z,3.22
2022-08-05T02:49:37.095Z,3.60
2022-08-05T02:52:11.759Z,4.28
2022-08-05T02:54:54.878Z,3.17
2022-08-05T02:58:20.021Z,3.80
2022-08-05T03:00:13.719Z,5.25
2022-08-05T03:02:44.068Z,3.45
2022-08-05T03:05:13.957Z,3.05
2022-08-05T03:08:00.821Z,3.40
2022-08-05T03:10:31.096Z,4.15
2022-08-05T03:15:24.879Z,2.80
2022-08-05T03:17:55.641Z,3.53
2022-08-05T03:20:24.380Z,4.38
2022-08-05T03:22:55.272Z,3.17
2022-08-05T03:25:32.441Z,3.20
2022-08-05T03:28:08.422Z,3.25
2022-08-05T03:30:38.352Z,5.03
2022-08-05T03:33:09.275Z,6.03
2022-08-05T03:35:40.731Z,3.20
2022-08-05T03:38:14.507Z,3.03
2022-08-05T03:40:47.389Z,2.40
2022-08-05T03:44:09.796Z,3.75
2022-08-05T03:46:05.518Z,3.67
2022-08-05T03:48:36.806Z,2.50
2022-08-05T03:52:38.609Z,2.30
2022-08-05T03:56:03.794Z,2.92
2022-08-05T03:56:58.902Z,3.22
2022-08-05T03:59:46.753Z,3.85
2022-08-05T04:05:10.136Z,3.83
2022-08-05T04:07:58.296Z,2.90
2022-08-05T04:10:30.864Z,3.78
2022-08-05T04:13:03.425Z,3.95
2022-08-05T04:15:33.109Z,4.75
2022-08-05T04:18:04.013Z,2.88
2022-08-05T04:20:35.157Z,3.90
2022-08-05T04:23:03.146Z,2.63
2022-08-05T04:25:57.620Z,4.97
2022-08-05T04:28:22.468Z,3.95
2022-08-05T04:31:01.135Z,4.30
2022-08-05T04:34:17.269Z,5.95
2022-08-05T04:36:45.558Z,6.25
2022-08-05T04:39:06.318Z,8.20
2022-08-05T04:41:37.236Z,3.03
2022-08-05T04:44:09.642Z,6.03
2022-08-05T04:46:38.650Z,4.85
2022-08-05T04:49:14.417Z,4.88
2022-08-05T04:51:44.099Z,6.10
2022-08-05T04:54:12.264Z,5.00
2022-08-05T04:56:40.022Z,3.67
2022-08-05T04:59:21.885Z,3.80
2022-08-05T05:02:35.372Z,4.60
2022-08-05T05:04:47.666Z,4.35
2022-08-05T05:07:18.333Z,6.40
2022-08-05T05:09:52.235Z,4.93
2022-08-05T05:12:22.238Z,5.15
2022-08-05T05:14:51.317Z,4.90
2022-08-05T05:17:23.943Z,4.55
2022-08-05T05:19:56.410Z,4.68
2022-08-05T05:22:26.071Z,4.18
2022-08-05T05:25:00.262Z,5.57
2022-08-05T05:27:41.225Z,4.00
2022-08-05T05:30:30.975Z,5.18
2022-08-05T05:33:03.872Z,3.50
2022-08-05T05:35:42.684Z,5.22
2022-08-05T05:38:13.268Z,5.90
2022-08-05T05:40:48.322Z,7.78
2022-08-05T05:43:22.229Z,14.27
2022-08-05T05:46:13.629Z,5.78
2022-08-05T05:48:44.507Z,13.30
2022-08-05T05:51:14.994Z,15.20
2022-08-05T05:53:54.159Z,12.88
2022-08-05T06:01:38.107Z,8.75
2022-08-05T06:04:14.545Z,7.32
2022-08-05T06:06:47.400Z,6.15
2022-08-05T06:09:24.882Z,8.05
2022-08-05T06:12:01.414Z,12.27
2022-08-05T06:14:31.068Z,4.28
2022-08-05T06:17:01.938Z,11.15
2022-08-05T06:19:34.738Z,5.88
2022-08-05T06:22:07.415Z,13.50
2022-08-05T06:24:48.137Z,8.45
2022-08-05T06:28:08.841Z,5.78
2022-08-05T06:30:18.090Z,7.90
2022-08-05T06:32:50.767Z,6.60
2022-08-05T06:36:02.955Z,6.22
2022-08-05T06:38:11.171Z,5.45
2022-08-05T06:40:44.593Z,10.38
2022-08-05T06:43:59.012Z,5.70
2022-08-05T06:46:06.808Z,5.70
2022-08-05T06:48:53.696Z,8.02
2022-08-05T06:51:30.263Z,7.00
2022-08-05T06:54:00.235Z,8.27
2022-08-05T06:56:34.330Z,5.10
2022-08-05T06:59:09.744Z,7.57
2022-08-05T07:01:41.539Z,5.28
2022-08-05T07:04:10.255Z,6.22
2022-08-05T07:06:37.965Z,5.85
2022-08-05T07:09:05.661Z,7.45
2022-08-05T07:11:36.860Z,8.70
2022-08-05T07:14:29.675Z,7.20
2022-08-05T07:18:00.459Z,5.20
2022-08-05T07:22:38.818Z,10.00
2022-08-05T07:25:09.560Z,6.22
2022-08-05T07:28:02.327Z,6.25
2022-08-05T07:30:39.141Z,9.88
2022-08-05T07:33:17.112Z,9.07
2022-08-05T07:36:02.304Z,5.40
2022-08-05T07:38:42.673Z,8.07
2022-08-05T07:42:12.977Z,5.85
2022-08-05T07:44:14.149Z,5.10
2022-08-05T07:46:42.084Z,4.93
2022-08-05T07:49:15.965Z,3.03
2022-08-05T07:51:54.466Z,4.68
2022-08-05T07:54:31.169Z,3.42
2022-08-05T07:57:17.695Z,4.68
2022-08-05T07:59:51.336Z,5.55
2022-08-05T08:02:26.700Z,4.53
2022-08-05T08:04:58.853Z,4.75
2022-08-05T08:07:28.151Z,6.28
2022-08-05T08:09:55.859Z,8.02
2022-08-05T08:12:35.182Z,9.75
2022-08-05T08:15:09.665Z,11.07
2022-08-05T08:17:50.780Z,9.82
2022-08-05T08:21:00.568Z,7.22
2022-08-05T08:24:00.200Z,7.07
2022-08-05T08:25:59.070Z,10.98
2022-08-05T08:28:36.793Z,6.68
2022-08-05T08:31:18.704Z,10.93
2022-08-05T08:33:51.604Z,4.03
2022-08-05T08:36:39.212Z,7.18
2022-08-05T08:39:15.654Z,5.53
2022-08-05T08:41:52.547Z,4.03
2022-08-05T08:45:17.975Z,7.22
2022-08-05T08:48:05.564Z,4.40
2022-08-05T08:50:31.026Z,4.07
2022-08-05T08:53:12.335Z,7.60
2022-08-05T08:56:04.215Z,6.70
2022-08-05T08:58:37.579Z,12.32
2022-08-05T09:03:57.598Z,4.80
2022-08-05T09:06:29.931Z,9.25
2022-08-05T09:09:01.097Z,5.35
2022-08-05T09:11:51.276Z,6.28
2022-08-05T09:14:58.375Z,7.72
2022-08-05T09:17:09.391Z,11.00
2022-08-05T09:20:01.323Z,9.10
2022-08-05T09:22:31.860Z,5.72
2022-08-05T09:25:02.105Z,3.92
2022-08-05T09:28:05.094Z,8.93
2022-08-05T09:30:34.939Z,3.60
2022-08-05T09:33:02.964Z,4.13
2022-08-05T09:35:32.813Z,7.20
2022-08-05T09:38:16.987Z,7.25
2022-08-05T09:40:52.639Z,6.55
2022-08-05T09:43:41.896Z,4.82
2022-08-05T09:46:27.596Z,6.63
2022-08-05T09:49:08.158Z,5.40
2022-08-05T09:51:49.915Z,23.02
2022-08-05T09:54:30.121Z,9.07
2022-08-05T09:57:01.722Z,3.80
2022-08-05T09:59:34.767Z,5.35
2022-08-05T10:02:05.490Z,8.10
2022-08-05T10:04:38.550Z,3.65
2022-08-05T10:07:20.119Z,7.03
2022-08-05T10:10:02.710Z,9.70
2022-08-05T10:12:56.885Z,7.20
2022-08-05T10:15:26.011Z,6.90
2022-08-05T10:18:10.531Z,11.95
2022-08-05T10:20:42.943Z,8.02
2022-08-05T10:23:34.194Z,7.18
2022-08-05T10:26:07.416Z,7.85
2022-08-05T10:28:46.393Z,7.05
2022-08-05T10:32:47.786Z,6.97
2022-08-05T10:34:07.860Z,5.25
2022-08-05T10:36:40.966Z,4.53
2022-08-05T10:39:25.255Z,4.93
2022-08-05T10:42:18.815Z,8.05
2022-08-05T10:45:00.374Z,6.60
2022-08-05T10:47:33.494Z,5.63
2022-08-05T10:50:32.695Z,6.97
2022-08-05T10:52:58.768Z,6.80
2022-08-05T10:55:27.681Z,5.65
2022-08-05T10:58:09.546Z,6.05
2022-08-05T11:00:46.179Z,5.75
2022-08-05T11:03:23.380Z,5.10
2022-08-05T11:06:19.133Z,4.32
2022-08-05T11:09:18.593Z,5.82
2022-08-05T11:11:54.082Z,7.43
2022-08-05T11:14:57.613Z,4.68
2022-08-05T11:17:58.859Z,4.63
2022-08-05T11:20:46.225Z,8.30
2022-08-05T11:24:03.365Z,8.68
2022-08-05T11:26:32.150Z,6.50
2022-08-05T11:29:13.255Z,7.65
2022-08-05T11:31:54.266Z,9.25
2022-08-05T11:34:52.095Z,4.72
2022-08-05T11:38:28.358Z,6.18
2022-08-05T11:41:01.804Z,4.18
2022-08-05T11:44:12.817Z,4.78
2022-08-05T11:47:10.474Z,5.95
2022-08-05T11:49:43.411Z,8.00
2022-08-05T11:52:31.010Z,5.82
2022-08-05T11:55:07.658Z,7.40
2022-08-05T11:58:08.301Z,4.63
2022-08-05T12:00:30.806Z,8.25
2022-08-05T12:02:58.806Z,5.05
2022-08-05T12:05:36.452Z,5.10
2022-08-05T12:08:11.416Z,7.60
2022-08-05T12:10:45.756Z,8.25
2022-08-05T12:13:17.058Z,6.85
2022-08-05T12:15:49.897Z,7.77
2022-08-05T12:18:39.931Z,11.48
2022-08-05T12:21:15.234Z,5.28
2022-08-05T12:24:17.581Z,4.37
2022-08-05T12:26:50.166Z,4.07
2022-08-05T12:29:25.176Z,5.07
2022-08-05T12:31:58.219Z,5.50
2022-08-05T12:34:35.900Z,11.07
2022-08-05T12:37:17.092Z,4.78
2022-08-05T12:39:51.904Z,5.00
2022-08-05T12:42:21.959Z,5.90
2022-08-05T12:44:53.098Z,4.97
2022-08-05T12:47:30.458Z,4.53
2022-08-05T12:50:04.403Z,5.82
2022-08-05T12:52:38.904Z,6.43
2022-08-05T12:55:25.142Z,7.03
2022-08-05T12:58:49.881Z,10.05
2022-08-05T13:02:02.434Z,3.35
2022-08-05T13:03:41.497Z,6.75
2022-08-05T13:06:16.780Z,4.13
2022-08-05T13:08:51.952Z,3.80
2022-08-05T13:12:01.811Z,6.07
2022-08-05T13:14:36.399Z,5.40
2022-08-05T13:17:41.366Z,7.95
2022-08-05T13:20:15.937Z,2.92
2022-08-05T13:22:49.068Z,7.15
2022-08-05T13:25:22.168Z,3.50
2022-08-05T13:28:07.849Z,4.00
2022-08-05T13:30:39.107Z,3.67
2022-08-05T13:33:06.808Z,6.30
2022-08-05T13:35:47.266Z,9.60
2022-08-05T13:38:31.192Z,6.60
2022-08-05T13:41:04.405Z,3.65
2022-08-05T13:43:44.561Z,3.35
2022-08-05T13:46:30.623Z,4.80
2022-08-05T13:49:06.064Z,5.57
2022-08-05T13:51:40.900Z,6.47
2022-08-05T13:54:12.406Z,4.40
2022-08-05T13:56:45.144Z,4.15
2022-08-05T13:59:21.386Z,3.88
2022-08-05T14:04:51.580Z,3.85
2022-08-05T14:07:25.838Z,5.07
2022-08-05T14:10:12.708Z,8.35
2022-08-05T14:12:42.629Z,8.13
2022-08-05T14:16:07.118Z,3.63
2022-08-05T14:18:01.400Z,5.10
2022-08-05T14:20:30.730Z,3.58
2022-08-05T14:22:59.530Z,4.90
2022-08-05T14:25:28.145Z,3.13
2022-08-05T14:27:56.307Z,5.03
2022-08-05T14:30:28.029Z,5.00
2022-08-05T14:32:57.067Z,3.00
2022-08-05T14:35:37.062Z,5.55
2022-08-05T14:38:31.639Z,3.95
2022-08-05T14:41:05.840Z,4.13
2022-08-05T14:44:02.059Z,6.30
2022-08-05T14:46:30.729Z,5.00
2022-08-05T14:49:06.510Z,3.70
2022-08-05T14:51:37.580Z,4.18
2022-08-05T14:54:28.291Z,3.60
2022-08-05T14:56:55.570Z,5.15
2022-08-05T14:59:23.694Z,5.80
2022-08-05T15:01:51.433Z,5.13
2022-08-05T15:04:22.780Z,5.05
2022-08-05T15:06:51.769Z,4.00
2022-08-05T15:09:50.552Z,3.40
2022-08-05T15:12:11.596Z,8.55
2022-08-05T15:14:49.506Z,5.45
2022-08-05T15:17:46.985Z,7.93
2022-08-05T15:20:18.934Z,3.30
2022-08-05T15:22:52.347Z,4.72
2022-08-05T15:25:41.017Z,3.95
2022-08-05T15:28:14.874Z,3.35
2022-08-05T15:30:45.626Z,4.40
2022-08-05T15:34:05.013Z,4.28
2022-08-05T15:36:04.920Z,5.55
2022-08-05T15:38:40.793Z,7.13
2022-08-05T15:41:21.236Z,6.55
2022-08-05T15:43:54.592Z,6.25
2022-08-05T15:46:24.812Z,6.85
2022-08-05T15:48:58.907Z,5.97
2022-08-05T15:52:09.933Z,4.18
2022-08-05T15:54:18.361Z,3.20
2022-08-05T15:56:46.039Z,9.50
2022-08-05T15:59:19.855Z,5.68
2022-08-05T16:01:52.944Z,4.45
2022-08-05T16:04:25.604Z,6.30
2022-08-05T16:06:55.733Z,3.25
2022-08-05T16:09:25.019Z,6.10
2022-08-05T16:11:54.010Z,3.08
2022-08-05T16:14:22.800Z,7.25
2022-08-05T16:16:50.994Z,3.75
2022-08-05T16:20:03.113Z,6.00
2022-08-05T16:22:10.712Z,3.97
2022-08-05T16:24:51.250Z,4.55
2022-08-05T16:27:32.044Z,2.78
2022-08-05T16:30:25.839Z,4.55
2022-08-05T16:32:54.598Z,5.82
2022-08-05T16:35:28.260Z,3.10
2022-08-05T16:38:16.013Z,4.97
2022-08-05T16:40:51.636Z,5.28
2022-08-05T16:43:25.164Z,4.43
2022-08-05T16:46:07.051Z,8.60
2022-08-05T16:48:40.637Z,4.18
2022-08-05T16:51:09.437Z,2.95
2022-08-05T16:54:06.074Z,6.63
2022-08-05T16:56:31.456Z,6.22
2022-08-05T16:58:59.084Z,4.35
2022-08-05T17:01:52.573Z,5.53
2022-08-05T17:04:18.781Z,5.55
2022-08-05T17:06:53.292Z,8.18
2022-08-05T17:09:23.120Z,6.40
2022-08-05T17:11:56.122Z,5.53
2022-08-05T17:14:36.683Z,4.68
2022-08-05T17:17:14.539Z,5.28
2022-08-05T17:19:45.598Z,3.22
2022-08-05T17:22:24.966Z,3.97
2022-08-05T17:24:57.063Z,6.78
2022-08-05T17:27:33.514Z,3.70
2022-08-05T17:30:07.076Z,6.40
2022-08-05T17:32:42.135Z,6.50
2022-08-05T17:35:12.223Z,4.57
2022-08-05T17:37:45.492Z,4.22
2022-08-05T17:40:17.925Z,7.43
2022-08-05T17:42:50.586Z,6.72
2022-08-05T17:45:22.205Z,7.35
2022-08-05T17:47:55.081Z,3.45
2022-08-05T17:50:30.312Z,8.15
2022-08-05T17:53:00.183Z,3.72
2022-08-05T17:55:34.247Z,5.15
2022-08-05T17:58:13.623Z,7.30
2022-08-05T18:00:47.456Z,3.58
2022-08-05T18:03:48.351Z,6.07
2022-08-05T18:06:12.118Z,7.35
2022-08-05T18:08:45.908Z,5.97
2022-08-05T18:11:23.952Z,14.70
2022-08-05T18:14:06.561Z,20.17
2022-08-05T18:16:51.361Z,21.95
2022-08-05T18:19:22.755Z,11.95
2022-08-05T18:22:08.421Z,19.77
2022-08-05T18:24:39.934Z,14.95
2022-08-05T18:27:12.981Z,7.30
2022-08-05T18:29:53.673Z,11.10
2022-08-05T18:32:27.749Z,13.23
2022-08-05T18:34:56.758Z,12.95
2022-08-05T18:37:34.508Z,7.22
2022-08-05T18:41:50.143Z,12.50
2022-08-05T18:42:58.078Z,12.40
2022-08-05T18:45:41.903Z,12.15
2022-08-05T18:48:11.151Z,7.53
2022-08-05T18:52:03.255Z,9.63
2022-08-05T18:53:50.166Z,8.30
2022-08-05T18:56:21.773Z,6.10
2022-08-05T18:58:54.934Z,9.85
2022-08-05T19:01:33.327Z,6.97
2022-08-05T19:04:24.350Z,9.23
2022-08-05T19:06:53.826Z,8.45
2022-08-05T19:09:22.058Z,12.38
2022-08-05T19:11:59.999Z,15.32
2022-08-05T19:14:53.419Z,10.23
2022-08-05T19:17:17.280Z,10.20
2022-08-05T19:19:48.634Z,14.32
2022-08-05T19:22:17.732Z,11.45
2022-08-05T19:24:54.585Z,11.55
2022-08-05T19:27:27.914Z,10.18
2022-08-05T19:29:58.602Z,11.35
2022-08-05T19:32:27.942Z,13.80
2022-08-05T19:34:56.937Z,13.13
2022-08-05T19:37:29.804Z,11.38
2022-08-05T19:40:15.003Z,11.85
2022-08-05T19:42:42.895Z,15.02
2022-08-05T19:45:36.297Z,12.80
2022-08-05T19:48:05.580Z,11.68
2022-08-05T19:50:33.540Z,11.88
2022-08-05T19:53:09.603Z,11.57
2022-08-05T19:56:15.704Z,10.68
2022-08-05T19:58:29.618Z,12.80
2022-08-05T20:00:58.229Z,12.27
2022-08-05T20:03:26.699Z,14.15
2022-08-05T20:05:56.779Z,14.60
2022-08-05T20:08:25.612Z,12.25
2022-08-05T20:10:54.041Z,12.48
2022-08-05T20:13:54.778Z,12.68
2022-08-05T20:16:10.234Z,17.13
2022-08-05T20:18:38.135Z,16.88
2022-08-05T20:21:07.431Z,18.33
2022-08-05T20:23:39.472Z,13.60
2022-08-05T20:26:23.292Z,14.57
2022-08-05T20:28:55.725Z,13.80
2022-08-05T20:31:36.794Z,11.88
2022-08-05T20:34:12.421Z,11.80
2022-08-05T20:36:43.143Z,11.27
2022-08-05T20:39:16.110Z,10.85
2022-08-05T20:41:45.171Z,8.17
2022-08-05T20:44:19.418Z,9.02
2022-08-05T20:47:03.427Z,8.25
2022-08-05T20:49:37.951Z,6.28
2022-08-05T20:52:08.781Z,7.53
2022-08-05T20:54:42.873Z,4.97
2022-08-05T20:57:43.000Z,4.60
2022-08-05T21:00:41.562Z,6.28
2022-08-05T21:03:07.332Z,3.78
2022-08-05T21:05:54.233Z,3.60
2022-08-05T21:08:26.534Z,2.70
2022-08-05T21:11:09.198Z,4.35
2022-08-05T21:13:47.526Z,3.63
2022-08-05T21:16:29.679Z,3.65
2022-08-05T21:19:01.930Z,4.15
2022-08-05T21:21:39.459Z,1.95
2022-08-05T21:24:15.626Z,3.67
2022-08-05T21:26:53.136Z,1.90
2022-08-05T21:29:26.594Z,2.05
2022-08-05T21:32:00.282Z,4.63
2022-08-05T21:34:28.590Z,2.33
2022-08-05T21:36:59.403Z,3.53
2022-08-05T21:39:28.097Z,1.77
2022-08-05T21:42:01.993Z,2.88
2022-08-05T21:44:31.724Z,3.53
2022-08-05T21:47:00.397Z,3.22
2022-08-05T21:49:59.272Z,2.53
2022-08-05T21:52:27.894Z,5.47
2022-08-05T21:55:06.047Z,2.65
2022-08-05T21:57:35.740Z,4.55
2022-08-05T22:00:10.844Z,4.82
2022-08-05T22:02:42.654Z,3.38
2022-08-05T22:05:11.609Z,2.70
2022-08-05T22:07:58.451Z,4.03
2022-08-05T22:10:28.350Z,2.53
2022-08-05T22:12:58.883Z,3.55
2022-08-05T22:16:01.027Z,3.92
2022-08-05T22:18:24.848Z,3.65
2022-08-05T22:20:53.993Z,2.42
2022-08-05T22:24:01.946Z,1.98
2022-08-05T22:27:10.928Z,1.77
2022-08-05T22:29:44.239Z,1.65
2022-08-05T22:32:17.516Z,1.52
2022-08-05T22:34:45.834Z,2.72
2022-08-05T22:37:13.503Z,2.47
2022-08-05T22:39:41.054Z,3.65
2022-08-05T22:42:12.666Z,6.22
2022-08-05T22:44:48.168Z,4.32
2022-08-05T22:47:29.986Z,5.90
2022-08-05T22:50:20.747Z,5.32
2022-08-05T22:52:51.344Z,3.72
2022-08-05T22:55:21.649Z,2.30
2022-08-05T22:57:51.535Z,5.32
2022-08-05T23:00:21.679Z,5.57
2022-08-05T23:02:52.214Z,4.43
2022-08-05T23:05:22.068Z,3.97
2022-08-05T23:07:51.409Z,4.55
2022-08-05T23:10:23.499Z,4.75
2022-08-05T23:12:54.598Z,4.55
2022-08-05T23:15:29.937Z,3.80
2022-08-05T23:18:05.921Z,6.93
2022-08-05T23:20:39.474Z,7.78
2022-08-05T23:23:08.717Z,3.55
2022-08-05T23:25:53.302Z,4.43
2022-08-05T23:28:28.852Z,4.63
2022-08-05T23:31:03.728Z,5.30
2022-08-05T23:34:03.763Z,5.38
2022-08-05T23:36:39.965Z,6.20
2022-08-05T23:39:32.449Z,4.00
2022-08-05T23:42:08.605Z,4.65
2022-08-05T23:44:42.628Z,4.75
2022-08-05T23:47:15.333Z,6.30
2022-08-05T23:49:45.631Z,2.37
2022-08-05T23:52:32.141Z,5.07
2022-08-05T23:55:09.201Z,4.60
2022-08-05T23:57:38.709Z,3.22
